createdAt,value
2022-10-28T00:02:10.336Z,100413.44
2022-10-28T00:05:11.774Z,100417.53
2022-10-28T00:08:13.237Z,100413.72
2022-10-28T00:11:16.080Z,100421.16
2022-10-28T00:14:17.490Z,100428.56
2022-10-28T00:17:19.085Z,100424.94
2022-10-28T00:20:20.712Z,100429.69
2022-10-28T00:23:22.080Z,100431.16
2022-10-28T00:26:26.059Z,100435.63
2022-10-28T00:29:27.549Z,100440.34
2022-10-28T00:32:29.963Z,100444.81
2022-10-28T00:35:31.400Z,100440.97
2022-10-28T00:38:32.804Z,100442.81
2022-10-28T00:41:37.275Z,100433.91
2022-10-28T00:44:50.811Z,100432.63
2022-10-28T00:48:02.553Z,100427.53
2022-10-28T00:51:05.253Z,100422.94
2022-10-28T00:54:07.958Z,100428.41
2022-10-28T00:57:15.613Z,100417.34
2022-10-28T01:00:17.435Z,100417.88
2022-10-28T01:03:19.178Z,100414.59
2022-10-28T01:06:20.647Z,100411.50
2022-10-28T01:09:22.074Z,100412.66
2022-10-28T01:12:38.957Z,100415.94
2022-10-28T01:15:49.387Z,100418.56
2022-10-28T01:19:11.938Z,100419.66
2022-10-28T01:22:25.449Z,100416.97
2022-10-28T01:26:22.908Z,100431.97
2022-10-28T01:29:47.834Z,100430.13
2022-10-28T01:32:59.802Z,100424.03
2022-10-28T01:36:13.435Z,100423.06
2022-10-28T01:39:29.630Z,100420.25
2022-10-28T01:42:59.735Z,100427.69
2022-10-28T01:46:17.148Z,100412.53
2022-10-28T01:49:25.540Z,100416.69
2022-10-28T01:52:30.395Z,100418.25
2022-10-28T01:55:38.416Z,100417.22
2022-10-28T01:58:40.483Z,100420.63
2022-10-28T02:01:42.029Z,100419.13
2022-10-28T02:04:43.540Z,100407.41
2022-10-28T02:07:45.423Z,100404.13
2022-10-28T02:10:46.798Z,100398.72
2022-10-28T02:14:12.151Z,100402.00
2022-10-28T02:17:19.292Z,100406.97
2022-10-28T02:20:32.811Z,100398.53
2022-10-28T02:23:46.274Z,100383.41
2022-10-28T02:26:54.040Z,100391.09
2022-10-28T02:30:07.880Z,100396.31
2022-10-28T02:33:13.012Z,100394.88
2022-10-28T02:36:18.281Z,100393.25
2022-10-28T02:39:25.187Z,100390.19
2022-10-28T02:42:37.759Z,100382.16
2022-10-28T02:45:46.281Z,100386.91
2022-10-28T02:48:52.437Z,100386.78
2022-10-28T02:51:59.531Z,100390.94
2022-10-28T02:55:06.735Z,100383.72
2022-10-28T02:58:08.453Z,100380.44
2022-10-28T03:01:10.176Z,100374.25
2022-10-28T03:04:11.661Z,100366.31
2022-10-28T03:07:13.121Z,100367.03
2022-10-28T03:10:14.571Z,100360.13
2022-10-28T03:13:15.984Z,100360.41
2022-10-28T03:16:17.490Z,100361.53
2022-10-28T03:19:19.015Z,100361.53
2022-10-28T03:22:20.487Z,100363.75
2022-10-28T03:25:21.956Z,100367.06
2022-10-28T03:28:23.406Z,100362.63
2022-10-28T03:31:24.817Z,100356.84
2022-10-28T03:34:26.212Z,100356.41
2022-10-28T03:37:27.643Z,100345.47
2022-10-28T03:40:29.285Z,100345.25
2022-10-28T03:43:30.748Z,100340.25
2022-10-28T03:46:35.123Z,100338.44
2022-10-28T03:49:37.543Z,100331.84
2022-10-28T03:52:39.104Z,100333.09
2022-10-28T03:55:40.479Z,100328.50
2022-10-28T03:58:42.022Z,100330.66
2022-10-28T04:01:43.557Z,100318.72
2022-10-28T04:04:45.163Z,100322.84
2022-10-28T04:07:47.373Z,100325.69
2022-10-28T04:10:48.874Z,100320.72
2022-10-28T04:13:50.321Z,100313.44
2022-10-28T04:16:51.790Z,100312.81
2022-10-28T04:19:53.212Z,100304.91
2022-10-28T04:22:57.150Z,100315.66
2022-10-28T04:25:58.854Z,100316.44
2022-10-28T04:29:00.223Z,100319.75
2022-10-28T04:32:01.913Z,100322.50
2022-10-28T04:35:03.477Z,100320.00
2022-10-28T04:38:05.237Z,100317.19
2022-10-28T04:41:06.685Z,100307.81
2022-10-28T04:44:08.100Z,100291.53
2022-10-28T04:47:09.508Z,100285.94
2022-10-28T04:50:10.908Z,100284.72
2022-10-28T04:53:12.604Z,100279.00
2022-10-28T04:56:13.972Z,100278.53
2022-10-28T04:59:15.333Z,100285.50
2022-10-28T05:02:16.831Z,100290.22
2022-10-28T05:05:19.245Z,100283.28
2022-10-28T05:08:20.627Z,100291.47
2022-10-28T05:11:22.259Z,100280.41
2022-10-28T05:14:23.740Z,100279.41
2022-10-28T05:17:25.168Z,100280.13
2022-10-28T05:20:26.613Z,100303.72
2022-10-28T05:23:30.891Z,100335.44
2022-10-28T05:26:32.482Z,100336.72
2022-10-28T05:29:33.872Z,100333.88
2022-10-28T05:32:35.271Z,100340.91
2022-10-28T05:35:37.747Z,100362.97
2022-10-28T05:38:40.164Z,100338.06
2022-10-28T05:41:41.638Z,100339.81
2022-10-28T05:44:43.145Z,100344.03
2022-10-28T05:47:48.677Z,100336.03
2022-10-28T05:50:50.099Z,100342.72
2022-10-28T05:53:51.589Z,100334.56
2022-10-28T05:56:53.211Z,100330.41
2022-10-28T05:59:54.631Z,100326.75
2022-10-28T06:03:10.416Z,100334.72
2022-10-28T06:06:11.817Z,100332.22
2022-10-28T06:09:13.415Z,100339.31
2022-10-28T06:12:13.283Z,100330.50
2022-10-28T06:15:14.752Z,100336.63
2022-10-28T06:18:18.861Z,100324.47
2022-10-28T06:21:20.497Z,100328.97
2022-10-28T06:24:21.929Z,100335.56
2022-10-28T06:27:23.341Z,100324.03
2022-10-28T06:30:25.885Z,100323.78
2022-10-28T06:33:27.489Z,100333.59
2022-10-28T06:36:28.900Z,100338.53
2022-10-28T06:39:30.309Z,100346.63
2022-10-28T06:42:31.885Z,100343.03
2022-10-28T06:45:34.138Z,100345.44
2022-10-28T06:48:37.126Z,100345.59
2022-10-28T06:51:38.548Z,100344.88
2022-10-28T06:54:39.982Z,100350.56
2022-10-28T06:57:41.400Z,100361.69
2022-10-28T07:00:42.845Z,100365.69
2022-10-28T07:03:44.359Z,100373.56
2022-10-28T07:06:47.564Z,100369.47
2022-10-28T07:09:51.354Z,100362.69
2022-10-28T07:12:53.576Z,100363.00
2022-10-28T07:15:58.746Z,100373.28
2022-10-28T07:19:00.217Z,100381.28
2022-10-28T07:22:01.635Z,100385.06
2022-10-28T07:25:03.164Z,100364.88
2022-10-28T07:28:05.175Z,100361.97
2022-10-28T07:31:06.656Z,100358.75
2022-10-28T07:34:08.608Z,100357.25
2022-10-28T07:37:12.980Z,100348.28
2022-10-28T07:40:14.913Z,100346.13
2022-10-28T07:43:16.381Z,100352.09
2022-10-28T07:46:20.693Z,100358.28
2022-10-28T07:49:25.459Z,100357.00
2022-10-28T07:52:28.611Z,100359.94
2022-10-28T07:55:32.654Z,100363.34
2022-10-28T07:58:39.109Z,100373.53
2022-10-28T08:01:48.010Z,100375.84
2022-10-28T08:04:54.294Z,100378.44
2022-10-28T08:08:00.841Z,100382.53
2022-10-28T08:11:29.932Z,100376.34
2022-10-28T08:17:54.551Z,100380.34
2022-10-28T08:21:01.734Z,100382.63
2022-10-28T08:24:08.407Z,100386.38
2022-10-28T08:27:12.084Z,100384.94
2022-10-28T08:30:15.538Z,100387.75
2022-10-28T08:33:19.606Z,100384.47
2022-10-28T08:36:23.433Z,100378.34
2022-10-28T08:39:28.405Z,100379.63
2022-10-28T08:42:40.188Z,100377.31
2022-10-28T08:45:54.800Z,100376.75
2022-10-28T08:49:00.784Z,100367.25
2022-10-28T08:52:42.909Z,100364.28
2022-10-28T08:55:50.053Z,100345.59
2022-10-28T08:59:02.568Z,100347.69
2022-10-28T09:02:24.409Z,100367.31
2022-10-28T09:05:32.493Z,100364.41
2022-10-28T09:08:48.909Z,100360.63
2022-10-28T09:11:59.847Z,100367.81
2022-10-28T09:15:19.527Z,100379.84
2022-10-28T09:18:48.651Z,100373.13
2022-10-28T09:22:34.773Z,100372.22
2022-10-28T09:25:55.531Z,100378.06
2022-10-28T09:29:21.516Z,100380.03
2022-10-28T09:32:42.369Z,100386.78
2022-10-28T09:35:49.146Z,100387.09
2022-10-28T09:38:57.417Z,100381.88
2022-10-28T09:42:05.105Z,100393.72
2022-10-28T09:45:21.132Z,100389.63
2022-10-28T09:48:29.789Z,100383.78
2022-10-28T09:52:08.849Z,100379.16
2022-10-28T09:55:21.756Z,100376.78
2022-10-28T09:58:23.338Z,100370.88
2022-10-28T10:01:25.360Z,100377.47
2022-10-28T10:04:28.047Z,100374.22
2022-10-28T10:07:36.319Z,100375.06
2022-10-28T10:10:57.510Z,100385.63
2022-10-28T10:14:03.379Z,100374.97
2022-10-28T10:17:24.207Z,100346.31
2022-10-28T10:20:25.802Z,100363.81
2022-10-28T10:23:33.375Z,100364.31
2022-10-28T10:26:35.554Z,100354.97
2022-10-28T10:29:44.098Z,100356.00
2022-10-28T10:32:47.824Z,100350.75
2022-10-28T10:36:02.823Z,100347.75
2022-10-28T10:39:04.229Z,100348.56
2022-10-28T10:42:16.757Z,100341.41
2022-10-28T10:45:24.292Z,100345.22
2022-10-28T10:48:26.118Z,100342.25
2022-10-28T10:51:27.811Z,100339.97
2022-10-28T10:54:32.194Z,100351.47
2022-10-28T10:57:34.666Z,100345.81
2022-10-28T11:00:38.686Z,100339.63
2022-10-28T11:03:49.475Z,100348.28
2022-10-28T11:06:56.067Z,100350.59
2022-10-28T11:09:57.592Z,100349.31
2022-10-28T11:13:04.190Z,100344.16
2022-10-28T11:16:17.580Z,100342.91
2022-10-28T11:19:33.267Z,100335.81
2022-10-28T11:23:07.074Z,100346.69
2022-10-28T11:26:12.695Z,100342.88
2022-10-28T11:29:16.120Z,100328.81
2022-10-28T11:32:56.181Z,100343.25
2022-10-28T11:36:25.546Z,100351.72
2022-10-28T11:39:34.710Z,100338.63
2022-10-28T11:42:57.668Z,100361.00
2022-10-28T11:46:08.957Z,100367.59
2022-10-28T11:49:35.388Z,100369.19
2022-10-28T11:53:05.106Z,100379.47
2022-10-28T11:56:36.312Z,100364.16
2022-10-28T12:00:08.857Z,100372.34
2022-10-28T12:03:37.251Z,100365.75
2022-10-28T12:07:10.403Z,100352.63
2022-10-28T12:10:42.469Z,100335.03
2022-10-28T12:17:14.858Z,100309.47
2022-10-28T12:20:24.488Z,100303.59
2022-10-28T12:23:27.887Z,100289.09
2022-10-28T12:26:43.447Z,100287.78
2022-10-28T12:29:51.178Z,100300.94
2022-10-28T12:33:19.315Z,100308.53
2022-10-28T12:36:39.171Z,100299.28
2022-10-28T12:40:11.488Z,100294.38
2022-10-28T12:43:16.192Z,100296.88
2022-10-28T12:46:34.687Z,100301.13
2022-10-28T12:49:59.782Z,100298.22
2022-10-28T12:53:01.131Z,100300.38
2022-10-28T12:56:07.358Z,100294.41
2022-10-28T12:59:18.758Z,100287.44
2022-10-28T13:02:26.351Z,100303.63
2022-10-28T13:05:35.675Z,100304.00
2022-10-28T13:08:43.336Z,100309.59
2022-10-28T13:12:02.336Z,100309.94
2022-10-28T13:15:18.365Z,100311.53
2022-10-28T13:18:56.884Z,100317.16
2022-10-28T13:22:33.907Z,100318.22
2022-10-28T13:25:45.496Z,100313.75
2022-10-28T13:28:51.673Z,100304.16
2022-10-28T13:31:54.201Z,100309.19
2022-10-28T13:34:56.194Z,100308.16
2022-10-28T13:38:00.635Z,100309.25
2022-10-28T13:41:01.986Z,100299.94
2022-10-28T13:44:09.743Z,100299.00
2022-10-28T13:47:17.130Z,100310.09
2022-10-28T13:50:34.850Z,100311.50
2022-10-28T13:53:45.574Z,100306.38
2022-10-28T13:56:49.711Z,100301.16
2022-10-28T13:59:56.714Z,100303.41
2022-10-28T14:03:01.086Z,100298.78
2022-10-28T14:06:03.040Z,100293.91
2022-10-28T14:09:05.008Z,100292.66
2022-10-28T14:12:23.637Z,100286.47
2022-10-28T14:15:36.999Z,100278.41
2022-10-28T14:18:43.614Z,100288.97
2022-10-28T14:22:07.983Z,100286.72
2022-10-28T14:25:40.429Z,100282.94
2022-10-28T14:28:41.783Z,100278.31
2022-10-28T14:31:44.868Z,100284.13
2022-10-28T14:34:47.157Z,100292.47
2022-10-28T14:38:09.742Z,100301.41
2022-10-28T14:41:47.979Z,100298.75
2022-10-28T14:45:20.448Z,100298.63
2022-10-28T14:48:41.020Z,100300.38
2022-10-28T14:51:44.010Z,100298.56
2022-10-28T14:54:55.353Z,100288.38
2022-10-28T14:58:18.559Z,100300.84
2022-10-28T15:01:25.174Z,100300.44
2022-10-28T15:04:27.998Z,100305.19
2022-10-28T15:07:32.915Z,100306.03
2022-10-28T15:10:39.395Z,100303.66
2022-10-28T15:13:43.348Z,100299.91
2022-10-28T15:16:48.830Z,100301.47
2022-10-28T15:19:55.916Z,100291.72
2022-10-28T15:23:21.908Z,100289.81
2022-10-28T15:26:23.484Z,100289.00
2022-10-28T15:29:25.466Z,100297.09
2022-10-28T15:32:29.355Z,100287.28
2022-10-28T15:35:31.091Z,100292.91
2022-10-28T15:38:40.594Z,100286.03
2022-10-28T15:41:44.890Z,100292.59
2022-10-28T15:44:46.449Z,100293.63
2022-10-28T15:47:49.166Z,100297.72
2022-10-28T15:51:12.714Z,100321.09
2022-10-28T15:54:19.725Z,100322.16
2022-10-28T15:57:46.176Z,100327.44
2022-10-28T16:00:55.446Z,100312.69
2022-10-28T16:03:57.595Z,100319.47
2022-10-28T16:07:07.756Z,100323.31
2022-10-28T16:10:14.613Z,100318.00
2022-10-28T16:13:26.046Z,100324.13
2022-10-28T16:16:30.036Z,100321.81
2022-10-28T16:19:37.810Z,100317.50
2022-10-28T16:22:40.101Z,100324.84
2022-10-28T16:25:41.523Z,100328.94
2022-10-28T16:28:45.276Z,100324.84
2022-10-28T16:31:51.529Z,100322.78
2022-10-28T16:34:53.043Z,100323.00
2022-10-28T16:37:55.743Z,100334.16
2022-10-28T16:40:59.488Z,100342.41
2022-10-28T16:44:01.349Z,100343.47
2022-10-28T16:47:09.322Z,100351.97
2022-10-28T16:50:11.580Z,100357.06
2022-10-28T16:53:13.821Z,100350.03
2022-10-28T16:56:16.282Z,100353.72
2022-10-28T16:59:18.206Z,100364.03
2022-10-28T17:02:35.011Z,100362.25
2022-10-28T17:05:36.645Z,100369.16
2022-10-28T17:12:00.309Z,100371.16
2022-10-28T17:15:01.763Z,100369.53
2022-10-28T17:18:03.407Z,100359.94
2022-10-28T17:21:04.947Z,100366.19
2022-10-28T17:24:06.866Z,100364.22
2022-10-28T17:27:08.302Z,100363.66
2022-10-28T17:30:10.362Z,100365.34
2022-10-28T17:33:11.773Z,100377.25
2022-10-28T17:36:13.177Z,100369.53
2022-10-28T17:39:18.598Z,100381.75
2022-10-28T17:42:22.304Z,100388.53
2022-10-28T17:45:23.716Z,100390.94
2022-10-28T17:48:25.115Z,100388.75
2022-10-28T17:51:27.608Z,100388.56
2022-10-28T17:54:29.199Z,100391.97
2022-10-28T17:57:30.711Z,100391.97
2022-10-28T18:00:32.216Z,100388.78
2022-10-28T18:03:38.982Z,100392.22
2022-10-28T18:06:40.765Z,100392.31
2022-10-28T18:09:42.367Z,100393.09
2022-10-28T18:12:43.765Z,100393.41
2022-10-28T18:15:45.294Z,100396.69
2022-10-28T18:18:47.306Z,100401.88
2022-10-28T18:21:49.046Z,100404.41
2022-10-28T18:24:50.550Z,100406.88
2022-10-28T18:27:51.943Z,100405.34
2022-10-28T18:30:53.544Z,100398.19
2022-10-28T18:33:55.059Z,100403.56
2022-10-28T18:36:56.509Z,100405.84
2022-10-28T18:39:57.939Z,100398.97
2022-10-28T18:42:59.376Z,100397.19
2022-10-28T18:46:04.687Z,100390.34
2022-10-28T18:49:06.470Z,100389.34
2022-10-28T18:52:07.912Z,100391.25
2022-10-28T18:55:09.752Z,100395.09
2022-10-28T18:58:14.228Z,100401.59
2022-10-28T19:01:18.661Z,100399.00
2022-10-28T19:04:20.117Z,100406.06
2022-10-28T19:07:21.547Z,100408.16
2022-10-28T19:10:22.961Z,100412.81
2022-10-28T19:13:24.754Z,100413.13
2022-10-28T19:16:27.293Z,100413.03
2022-10-28T19:19:28.837Z,100418.75
2022-10-28T19:22:30.271Z,100417.97
2022-10-28T19:25:31.737Z,100403.69
2022-10-28T19:28:41.373Z,100418.91
2022-10-28T19:31:43.478Z,100414.69
2022-10-28T19:34:45.591Z,100417.78
2022-10-28T19:37:46.963Z,100428.22
2022-10-28T19:40:48.362Z,100423.81
2022-10-28T19:43:56.890Z,100425.16
2022-10-28T19:46:59.890Z,100417.44
2022-10-28T19:50:01.351Z,100418.59
2022-10-28T19:53:03.067Z,100410.22
2022-10-28T19:56:04.871Z,100409.75
2022-10-28T19:59:07.125Z,100418.50
2022-10-28T20:02:10.337Z,100408.22
2022-10-28T20:05:11.881Z,100407.09
2022-10-28T20:08:14.214Z,100412.94
2022-10-28T20:11:21.393Z,100407.47
2022-10-28T20:14:26.355Z,100413.84
2022-10-28T20:17:27.827Z,100419.06
2022-10-28T20:20:29.259Z,100415.59
2022-10-28T20:23:32.266Z,100420.72
2022-10-28T20:26:36.384Z,100423.63
2022-10-28T20:29:37.806Z,100433.81
2022-10-28T20:32:39.192Z,100438.53
2022-10-28T20:35:40.625Z,100441.72
2022-10-28T20:38:42.047Z,100441.44
2022-10-28T20:41:45.506Z,100449.06
2022-10-28T20:44:46.927Z,100437.41
2022-10-28T20:47:48.349Z,100440.56
2022-10-28T20:51:00.960Z,100445.56
2022-10-28T20:54:03.050Z,100443.19
2022-10-28T20:57:04.557Z,100443.09
2022-10-28T21:00:07.909Z,100452.13
2022-10-28T21:03:10.836Z,100458.16
2022-10-28T21:06:14.954Z,100449.13
2022-10-28T21:09:16.545Z,100454.53
2022-10-28T21:12:18.073Z,100445.72
2022-10-28T21:15:19.457Z,100450.38
2022-10-28T21:18:20.898Z,100445.72
2022-10-28T21:21:23.967Z,100448.13
2022-10-28T21:24:25.346Z,100456.22
2022-10-28T21:27:26.830Z,100453.47
2022-10-28T21:30:28.336Z,100451.72
2022-10-28T21:33:30.285Z,100456.13
2022-10-28T21:36:31.760Z,100461.72
2022-10-28T21:39:33.182Z,100452.69
2022-10-28T21:42:34.696Z,100459.59
2022-10-28T21:45:36.134Z,100455.44
2022-10-28T21:48:38.398Z,100458.28
2022-10-28T21:51:39.910Z,100466.47
2022-10-28T21:54:42.389Z,100468.09
2022-10-28T21:57:43.819Z,100469.00
2022-10-28T22:00:45.964Z,100472.69
2022-10-28T22:03:47.407Z,100463.16
2022-10-28T22:06:48.878Z,100464.69
2022-10-28T22:09:50.390Z,100460.16
2022-10-28T22:12:51.782Z,100472.75
2022-10-28T22:16:00.592Z,100467.09
2022-10-28T22:19:05.367Z,100457.56
2022-10-28T22:22:06.774Z,100449.69
2022-10-28T22:25:10.478Z,100455.00
2022-10-28T22:28:12.617Z,100457.03
2022-10-28T22:31:17.300Z,100440.06
2022-10-28T22:34:18.748Z,100446.91
2022-10-28T22:37:20.165Z,100463.69
2022-10-28T22:40:21.625Z,100450.16
2022-10-28T22:43:23.234Z,100453.63
2022-10-28T22:46:27.165Z,100457.44
2022-10-28T22:49:28.596Z,100454.09
2022-10-28T22:52:29.999Z,100453.03
2022-10-28T22:55:31.407Z,100458.69
2022-10-28T22:58:33.003Z,100456.28
2022-10-28T23:01:34.497Z,100450.00
2022-10-28T23:04:36.041Z,100456.09
2022-10-28T23:07:37.406Z,100462.22
2022-10-28T23:10:38.803Z,100458.00
2022-10-28T23:13:40.516Z,100456.38
2022-10-28T23:16:41.915Z,100452.44
2022-10-28T23:19:43.323Z,100455.88
2022-10-28T23:22:44.719Z,100463.00
2022-10-28T23:25:55.266Z,100463.91
2022-10-28T23:28:59.093Z,100468.94
2022-10-28T23:32:00.466Z,100469.75
2022-10-28T23:35:02.044Z,100461.84
2022-10-28T23:38:05.183Z,100453.47
2022-10-28T23:41:09.833Z,100459.34
2022-10-28T23:44:11.391Z,100458.19
2022-10-28T23:47:13.034Z,100461.38
2022-10-28T23:50:14.919Z,100453.81
2022-10-28T23:53:17.165Z,100456.03
2022-10-28T23:56:18.807Z,100469.63
2022-10-28T23:59:20.236Z,100466.50
